createdAt,value
2023-01-21T00:01:11.235Z,54.40
2023-01-21T00:03:40.492Z,54.40
2023-01-21T00:06:18.855Z,54.40
2023-01-21T00:08:47.169Z,54.40
2023-01-21T00:11:16.708Z,54.20
2023-01-21T00:13:46.114Z,54.60
2023-01-21T00:16:15.076Z,54.40
2023-01-21T00:18:43.616Z,54.40
2023-01-21T00:21:12.041Z,54.90
2023-01-21T00:23:42.105Z,54.30
2023-01-21T00:26:12.798Z,54.60
2023-01-21T00:28:43.779Z,54.90
2023-01-21T00:31:13.534Z,54.80
2023-01-21T00:33:42.157Z,54.90
2023-01-21T00:36:18.343Z,54.70
2023-01-21T00:38:49.992Z,54.70
2023-01-21T00:41:18.687Z,54.70
2023-01-21T00:43:47.285Z,54.80
2023-01-21T00:46:15.506Z,54.80
2023-01-21T00:48:43.992Z,54.80
2023-01-21T00:51:14.706Z,54.70
2023-01-21T00:53:43.341Z,54.50
2023-01-21T00:56:15.047Z,54.70
2023-01-21T00:58:44.397Z,54.80
2023-01-21T01:01:14.869Z,54.50
2023-01-21T01:03:43.808Z,54.40
2023-01-21T01:06:14.679Z,54.60
2023-01-21T01:08:43.278Z,54.70
2023-01-21T01:11:12.301Z,54.70
2023-01-21T01:13:42.331Z,54.70
2023-01-21T01:16:13.672Z,54.40
2023-01-21T01:18:42.284Z,54.70
2023-01-21T01:21:13.291Z,54.60
2023-01-21T01:23:42.479Z,54.30
2023-01-21T01:26:13.160Z,54.50
2023-01-21T01:28:43.144Z,54.80
2023-01-21T01:31:14.414Z,54.30
2023-01-21T01:33:43.043Z,54.70
2023-01-21T01:36:14.135Z,54.60
2023-01-21T01:38:42.467Z,54.40
2023-01-21T01:41:17.501Z,54.50
2023-01-21T01:43:57.491Z,54.40
2023-01-21T01:46:27.595Z,54.50
2023-01-21T01:49:02.327Z,54.60
2023-01-21T01:51:36.519Z,54.60
2023-01-21T01:54:05.997Z,54.90
2023-01-21T01:56:36.173Z,54.70
2023-01-21T01:59:05.963Z,54.60
2023-01-21T02:01:34.436Z,54.80
2023-01-21T02:04:06.212Z,54.80
2023-01-21T02:06:35.769Z,54.80
2023-01-21T02:09:04.428Z,55.20
2023-01-21T02:11:32.661Z,54.90
2023-01-21T02:14:01.473Z,55.10
2023-01-21T02:16:51.121Z,55.20
2023-01-21T02:19:42.259Z,55.00
2023-01-21T02:22:17.253Z,55.30
2023-01-21T02:25:35.948Z,55.60
2023-01-21T02:28:32.565Z,55.50
2023-01-21T02:31:23.445Z,55.70
2023-01-21T02:34:02.257Z,55.70
2023-01-21T02:36:43.361Z,55.70
2023-01-21T02:39:22.169Z,55.80
2023-01-21T02:42:01.149Z,55.90
2023-01-21T02:44:36.999Z,56.10
2023-01-21T02:47:16.118Z,56.00
2023-01-21T02:49:50.308Z,56.20
2023-01-21T02:52:19.658Z,56.30
2023-01-21T02:54:53.647Z,56.50
2023-01-21T02:57:38.340Z,56.80
2023-01-21T03:00:11.435Z,56.80
2023-01-21T03:03:04.612Z,56.60
2023-01-21T03:05:46.692Z,57.20
2023-01-21T03:08:33.389Z,56.60
2023-01-21T03:11:10.849Z,57.40
2023-01-21T03:14:01.263Z,56.90
2023-01-21T03:17:00.134Z,57.10
2023-01-21T03:19:36.085Z,57.10
2023-01-21T03:22:10.172Z,57.60
2023-01-21T03:24:41.396Z,57.50
2023-01-21T03:27:13.162Z,57.40
2023-01-21T03:29:42.904Z,57.60
2023-01-21T03:32:15.644Z,57.50
2023-01-21T03:34:48.642Z,57.90
2023-01-21T03:37:23.361Z,58.20
2023-01-21T03:39:59.706Z,58.20
2023-01-21T03:51:07.658Z,57.90
2023-01-21T03:53:37.365Z,57.90
2023-01-21T03:56:06.207Z,57.90
2023-01-21T03:58:34.737Z,58.00
2023-01-21T04:01:03.334Z,58.40
2023-01-21T04:03:31.604Z,58.90
2023-01-21T04:06:00.309Z,58.20
2023-01-21T04:08:28.828Z,58.30
2023-01-21T04:10:58.408Z,58.70
2023-01-21T04:13:27.083Z,58.50
2023-01-21T04:15:55.385Z,58.80
2023-01-21T04:18:24.088Z,58.60
2023-01-21T04:20:52.447Z,58.70
2023-01-21T04:23:21.030Z,58.80
2023-01-21T04:25:49.584Z,58.60
2023-01-21T04:28:19.304Z,58.80
2023-01-21T04:30:49.110Z,58.90
2023-01-21T04:33:19.055Z,59.00
2023-01-21T04:35:47.748Z,59.00
2023-01-21T04:38:16.809Z,59.10
2023-01-21T04:40:45.645Z,59.10
2023-01-21T04:43:14.189Z,59.20
2023-01-21T04:45:43.793Z,58.90
2023-01-21T04:48:12.426Z,59.10
2023-01-21T04:50:40.550Z,58.90
2023-01-21T04:53:09.035Z,59.20
2023-01-21T04:55:37.456Z,59.40
2023-01-21T04:58:05.754Z,58.60
2023-01-21T05:00:34.176Z,58.90
2023-01-21T05:03:04.244Z,59.30
2023-01-21T05:05:32.556Z,58.70
2023-01-21T05:08:00.941Z,59.00
2023-01-21T05:10:29.457Z,59.30
2023-01-21T05:12:57.983Z,59.00
2023-01-21T05:15:26.828Z,58.90
2023-01-21T05:17:55.513Z,59.00
2023-01-21T05:20:25.361Z,58.80
2023-01-21T05:22:53.767Z,59.00
2023-01-21T05:25:22.289Z,59.00
2023-01-21T05:27:54.146Z,59.10
2023-01-21T05:30:23.026Z,59.30
2023-01-21T05:32:52.282Z,59.30
2023-01-21T05:35:21.664Z,59.30
2023-01-21T05:37:51.445Z,58.90
2023-01-21T05:40:20.420Z,59.10
2023-01-21T05:42:48.970Z,59.50
2023-01-21T05:45:17.291Z,59.30
2023-01-21T05:47:45.895Z,59.20
2023-01-21T05:50:14.347Z,59.30
2023-01-21T05:52:42.944Z,59.70
2023-01-21T05:55:12.703Z,59.30
2023-01-21T05:57:41.110Z,59.40
2023-01-21T06:00:10.709Z,59.40
2023-01-21T06:02:39.165Z,59.60
2023-01-21T06:05:08.263Z,59.90
2023-01-21T06:07:36.602Z,59.70
2023-01-21T06:10:05.515Z,59.50
2023-01-21T06:12:35.064Z,59.60
2023-01-21T06:15:04.135Z,59.90
2023-01-21T06:17:32.477Z,60.00
2023-01-21T06:20:01.145Z,59.80
2023-01-21T06:22:30.118Z,59.90
2023-01-21T06:24:59.143Z,60.10
2023-01-21T06:27:28.045Z,60.00
2023-01-21T06:29:58.389Z,60.00
2023-01-21T06:32:27.706Z,60.10
2023-01-21T06:34:56.645Z,60.40
2023-01-21T06:37:25.636Z,60.20
2023-01-21T06:39:54.841Z,59.90
2023-01-21T06:42:23.793Z,60.20
2023-01-21T06:44:52.384Z,60.40
2023-01-21T06:47:22.018Z,60.00
2023-01-21T06:49:50.312Z,60.70
2023-01-21T06:52:18.780Z,60.30
2023-01-21T06:54:48.283Z,60.20
2023-01-21T06:57:17.135Z,60.50
2023-01-21T06:59:46.339Z,60.10
2023-01-21T07:02:14.722Z,60.50
2023-01-21T07:04:45.262Z,60.50
2023-01-21T07:07:13.863Z,60.40
2023-01-21T07:09:42.158Z,60.50
2023-01-21T07:12:10.603Z,60.30
2023-01-21T07:14:38.953Z,60.60
2023-01-21T07:17:07.468Z,60.80
2023-01-21T07:19:35.689Z,60.50
2023-01-21T07:22:05.513Z,60.20
2023-01-21T07:24:33.837Z,60.40
2023-01-21T07:27:02.364Z,60.60
2023-01-21T07:29:30.926Z,60.60
2023-01-21T07:31:59.367Z,60.80
2023-01-21T07:34:27.695Z,60.50
2023-01-21T07:36:57.328Z,60.60
2023-01-21T07:39:27.340Z,60.90
2023-01-21T07:41:55.949Z,60.40
2023-01-21T07:44:24.313Z,60.60
2023-01-21T07:46:53.196Z,60.50
2023-01-21T07:49:21.616Z,60.70
2023-01-21T07:51:50.834Z,60.60
2023-01-21T07:54:19.135Z,60.60
2023-01-21T07:56:48.781Z,60.90
2023-01-21T07:59:17.131Z,60.70
2023-01-21T08:01:45.616Z,60.60
2023-01-21T08:04:13.867Z,60.50
2023-01-21T08:06:42.333Z,60.70
2023-01-21T08:09:11.307Z,60.70
2023-01-21T08:11:39.656Z,60.30
2023-01-21T08:14:09.326Z,60.60
2023-01-21T08:16:37.762Z,60.60
2023-01-21T08:19:06.209Z,60.50
2023-01-21T08:21:34.527Z,60.90
2023-01-21T08:24:02.997Z,60.80
2023-01-21T08:26:31.752Z,60.60
2023-01-21T08:29:00.208Z,60.60
2023-01-21T08:31:30.364Z,60.40
2023-01-21T08:33:59.673Z,60.60
2023-01-21T08:36:28.153Z,60.70
2023-01-21T08:38:58.637Z,60.70
2023-01-21T08:41:27.398Z,60.30
2023-01-21T08:43:57.110Z,60.50
2023-01-21T08:46:25.536Z,60.60
2023-01-21T08:48:55.450Z,60.40
2023-01-21T08:51:23.923Z,60.60
2023-01-21T08:53:52.714Z,60.60
2023-01-21T08:56:21.434Z,60.40
2023-01-21T08:58:54.717Z,60.50
2023-01-21T09:01:23.771Z,60.90
2023-01-21T09:03:56.932Z,60.60
2023-01-21T09:06:26.856Z,60.80
2023-01-21T09:08:55.793Z,60.50
2023-01-21T09:11:25.086Z,60.30
2023-01-21T09:13:53.465Z,60.60
2023-01-21T09:16:23.761Z,60.60
2023-01-21T09:18:52.227Z,60.60
2023-01-21T09:21:22.156Z,61.10
2023-01-21T09:23:50.721Z,60.80
2023-01-21T09:26:21.163Z,60.60
2023-01-21T09:28:54.485Z,60.60
2023-01-21T09:31:25.218Z,60.60
2023-01-21T09:33:55.855Z,60.80
2023-01-21T09:36:27.316Z,60.80
2023-01-21T09:38:56.056Z,60.70
2023-01-21T09:41:28.347Z,60.50
2023-01-21T09:44:06.294Z,60.50
2023-01-21T09:46:39.910Z,60.90
2023-01-21T09:49:15.854Z,60.50
2023-01-21T09:51:52.621Z,60.50
2023-01-21T09:54:29.774Z,60.60
2023-01-21T09:57:23.100Z,60.60
2023-01-21T10:00:05.463Z,60.50
2023-01-21T10:02:43.504Z,60.70
2023-01-21T10:05:59.497Z,61.00
2023-01-21T10:08:36.732Z,61.10
2023-01-21T10:11:20.318Z,60.70
2023-01-21T10:14:01.436Z,60.80
2023-01-21T10:16:36.573Z,61.10
2023-01-21T10:19:06.485Z,60.80
2023-01-21T10:21:40.462Z,61.00
2023-01-21T10:24:15.890Z,60.90
2023-01-21T10:26:46.882Z,60.80
2023-01-21T10:29:18.499Z,60.80
2023-01-21T10:31:54.789Z,60.80
2023-01-21T10:34:23.413Z,60.90
2023-01-21T10:37:06.675Z,61.10
2023-01-21T10:39:47.522Z,60.90
2023-01-21T10:42:29.358Z,60.80
2023-01-21T10:45:04.001Z,61.10
2023-01-21T10:47:40.766Z,61.10
2023-01-21T10:50:28.964Z,61.30
2023-01-21T10:53:02.850Z,61.00
2023-01-21T10:55:46.332Z,61.00
2023-01-21T10:58:28.156Z,60.90
2023-01-21T11:00:59.913Z,60.90
2023-01-21T11:03:35.421Z,61.50
2023-01-21T11:06:07.080Z,61.70
2023-01-21T11:08:35.696Z,61.30
2023-01-21T11:11:07.457Z,60.90
2023-01-21T11:13:35.930Z,61.10
2023-01-21T11:16:06.000Z,61.30
2023-01-21T11:18:37.357Z,61.30
2023-01-21T11:21:17.664Z,61.40
2023-01-21T11:23:57.190Z,61.40
2023-01-21T11:26:29.544Z,61.20
2023-01-21T11:29:09.191Z,61.20
2023-01-21T11:31:38.807Z,61.30
2023-01-21T11:34:08.383Z,61.40
2023-01-21T11:36:36.893Z,61.20
2023-01-21T11:39:09.133Z,61.00
2023-01-21T11:41:39.255Z,61.50
2023-01-21T11:44:18.316Z,61.60
2023-01-21T11:46:46.985Z,61.10
2023-01-21T11:49:30.391Z,61.20
2023-01-21T11:52:16.552Z,61.10
2023-01-21T11:54:45.347Z,61.30
2023-01-21T11:57:36.173Z,61.40
2023-01-21T12:00:19.621Z,61.50
2023-01-21T12:02:52.203Z,61.20
2023-01-21T12:05:31.160Z,61.60
2023-01-21T12:08:00.471Z,61.30
2023-01-21T12:10:32.212Z,61.50
2023-01-21T12:13:21.435Z,61.10
2023-01-21T12:16:12.175Z,61.30
2023-01-21T12:19:03.085Z,61.50
2023-01-21T12:21:47.560Z,61.40
2023-01-21T12:24:32.586Z,61.40
2023-01-21T12:27:09.503Z,61.70
2023-01-21T12:29:52.543Z,61.30
2023-01-21T12:32:25.453Z,61.30
2023-01-21T12:34:59.232Z,61.20
2023-01-21T12:37:32.491Z,61.60
2023-01-21T12:40:05.600Z,61.90
2023-01-21T12:42:38.116Z,61.60
2023-01-21T12:45:12.390Z,61.20
2023-01-21T12:47:45.774Z,61.20
2023-01-21T12:50:24.083Z,61.40
2023-01-21T12:53:05.095Z,61.60
2023-01-21T12:55:50.080Z,60.90
2023-01-21T12:58:22.031Z,61.20
2023-01-21T13:00:53.733Z,61.50
2023-01-21T13:03:29.004Z,61.70
2023-01-21T13:06:01.632Z,61.60
2023-01-21T13:08:48.464Z,61.10
2023-01-21T13:11:22.138Z,61.60
2023-01-21T13:13:58.469Z,61.20
2023-01-21T13:16:30.150Z,61.30
2023-01-21T13:18:59.242Z,61.30
2023-01-21T13:21:37.503Z,61.40
2023-01-21T13:24:16.505Z,61.80
2023-01-21T13:26:50.575Z,61.40
2023-01-21T13:29:27.474Z,61.60
2023-01-21T13:32:13.398Z,61.30
2023-01-21T13:34:52.241Z,61.40
2023-01-21T13:37:28.574Z,61.60
2023-01-21T13:40:15.991Z,61.60
2023-01-21T13:42:52.045Z,61.70
2023-01-21T13:45:28.103Z,61.50
2023-01-21T13:48:13.537Z,61.60
2023-01-21T13:50:55.219Z,61.40
2023-01-21T13:53:47.152Z,61.40
2023-01-21T13:56:33.786Z,61.70
2023-01-21T13:59:10.046Z,61.60
2023-01-21T14:01:44.381Z,61.50
2023-01-21T14:04:20.481Z,61.60
2023-01-21T14:06:54.803Z,61.40
2023-01-21T14:09:28.431Z,61.50
2023-01-21T14:12:02.765Z,61.50
2023-01-21T14:14:50.988Z,61.40
2023-01-21T14:17:39.680Z,61.40
2023-01-21T14:20:32.237Z,61.30
2023-01-21T14:23:30.787Z,61.60
2023-01-21T14:26:18.772Z,61.50
2023-01-21T14:28:57.628Z,61.60
2023-01-21T14:31:32.312Z,61.60
2023-01-21T14:34:11.825Z,61.60
2023-01-21T14:36:48.100Z,61.40
2023-01-21T14:39:33.235Z,61.50
2023-01-21T14:42:03.999Z,61.60
2023-01-21T14:44:41.430Z,61.60
2023-01-21T14:47:23.214Z,61.60
2023-01-21T14:49:54.275Z,61.20
2023-01-21T14:52:31.710Z,61.50
2023-01-21T14:55:00.972Z,61.70
2023-01-21T14:57:31.406Z,61.80
2023-01-21T15:00:21.379Z,62.00
2023-01-21T15:02:55.459Z,61.80
2023-01-21T15:05:27.243Z,61.80
2023-01-21T15:08:06.376Z,61.70
2023-01-21T15:10:38.706Z,61.70
2023-01-21T15:13:21.948Z,61.80
2023-01-21T15:16:13.790Z,61.80
2023-01-21T15:18:45.446Z,61.90
2023-01-21T15:21:36.700Z,61.80
2023-01-21T15:24:26.012Z,61.60
2023-01-21T15:27:17.758Z,61.80
2023-01-21T15:29:48.405Z,61.90
2023-01-21T15:32:27.915Z,61.80
2023-01-21T15:34:59.496Z,61.80
2023-01-21T15:37:30.388Z,61.80
2023-01-21T15:40:02.303Z,62.20
2023-01-21T15:42:43.562Z,62.40
2023-01-21T15:45:29.372Z,62.20
2023-01-21T15:48:36.400Z,62.20
2023-01-21T15:51:20.970Z,62.00
2023-01-21T15:54:06.857Z,62.60
2023-01-21T15:56:54.667Z,62.30
2023-01-21T15:59:37.953Z,62.20
2023-01-21T16:02:17.995Z,62.20
2023-01-21T16:04:58.818Z,62.40
2023-01-21T16:07:35.740Z,61.90
2023-01-21T16:10:16.784Z,62.60
2023-01-21T16:12:54.114Z,62.40
2023-01-21T16:15:32.469Z,62.40
2023-01-21T16:18:10.816Z,62.60
2023-01-21T16:20:44.359Z,62.50
2023-01-21T16:23:16.872Z,62.80
2023-01-21T16:25:48.894Z,62.80
2023-01-21T16:28:20.037Z,62.80
2023-01-21T16:30:56.261Z,62.90
2023-01-21T16:33:25.532Z,62.90
2023-01-21T16:35:57.038Z,63.00
2023-01-21T16:38:26.918Z,63.20
2023-01-21T16:41:24.042Z,63.50
2023-01-21T16:43:56.602Z,62.80
2023-01-21T16:46:27.681Z,63.30
2023-01-21T16:48:58.344Z,63.20
2023-01-21T16:51:30.918Z,63.40
2023-01-21T16:54:25.344Z,63.70
2023-01-21T16:56:57.088Z,63.50
2023-01-21T16:59:29.995Z,63.10
2023-01-21T17:02:01.067Z,63.60
2023-01-21T17:04:30.758Z,63.60
2023-01-21T17:06:59.462Z,64.00
2023-01-21T17:09:32.191Z,63.60
2023-01-21T17:12:06.308Z,64.10
2023-01-21T17:14:37.857Z,63.80
2023-01-21T17:17:08.535Z,64.10
2023-01-21T17:19:38.611Z,63.80
2023-01-21T17:22:15.279Z,64.10
2023-01-21T17:24:56.499Z,64.20
2023-01-21T17:27:26.250Z,64.20
2023-01-21T17:30:25.812Z,64.30
2023-01-21T17:32:56.323Z,64.30
2023-01-21T17:35:25.748Z,70.70
2023-01-21T17:37:56.207Z,64.20
2023-01-21T17:40:27.093Z,70.70
2023-01-21T17:42:56.863Z,64.00
2023-01-21T17:45:31.553Z,70.80
2023-01-21T17:48:09.461Z,64.30
2023-01-21T17:50:47.081Z,70.70
2023-01-21T17:53:22.998Z,70.80
2023-01-21T17:56:00.964Z,70.80
2023-01-21T17:58:44.529Z,70.80
2023-01-21T18:01:15.660Z,70.90
2023-01-21T18:03:44.366Z,71.00
2023-01-21T18:06:21.254Z,70.90
2023-01-21T18:08:50.866Z,71.00
2023-01-21T18:11:19.576Z,70.90
2023-01-21T18:13:48.630Z,70.90
2023-01-21T18:16:18.348Z,71.00
2023-01-21T18:18:46.802Z,70.90
2023-01-21T18:21:20.154Z,71.00
2023-01-21T18:23:48.913Z,71.10
2023-01-21T18:26:27.058Z,71.10
2023-01-21T18:28:55.527Z,71.10
2023-01-21T18:31:25.661Z,71.00
2023-01-21T18:33:54.145Z,71.20
2023-01-21T18:36:22.412Z,71.20
2023-01-21T18:38:50.828Z,71.00
2023-01-21T18:41:19.020Z,71.30
2023-01-21T18:43:47.308Z,71.20
2023-01-21T18:46:16.340Z,71.30
2023-01-21T18:48:46.032Z,71.20
2023-01-21T18:52:18.804Z,71.30
2023-01-21T18:55:51.037Z,71.20
2023-01-21T18:58:45.023Z,71.30
2023-01-21T19:01:23.913Z,71.20
2023-01-21T19:04:18.233Z,71.20
2023-01-21T19:06:51.002Z,71.30
2023-01-21T19:09:21.899Z,71.30
2023-01-21T19:11:56.655Z,71.10
2023-01-21T19:14:27.209Z,71.20
2023-01-21T19:17:22.487Z,71.20
2023-01-21T19:20:02.891Z,71.30
2023-01-21T19:23:08.652Z,71.40
2023-01-21T19:25:38.430Z,71.40
2023-01-21T19:28:07.147Z,71.40
2023-01-21T19:31:41.179Z,71.40
2023-01-21T19:34:09.771Z,71.40
2023-01-21T19:37:24.054Z,71.40
2023-01-21T19:40:37.599Z,71.50
2023-01-21T19:43:13.421Z,71.30
2023-01-21T19:46:18.587Z,71.30
2023-01-21T19:49:19.023Z,71.50
2023-01-21T20:13:44.442Z,71.30
2023-01-21T20:16:16.645Z,71.40
2023-01-21T20:18:46.200Z,71.30
2023-01-21T20:21:14.731Z,71.50
2023-01-21T20:23:43.319Z,71.50
2023-01-21T20:26:16.410Z,71.60
2023-01-21T20:28:51.232Z,71.40
2023-01-21T20:31:20.079Z,71.40
2023-01-21T20:33:48.829Z,71.40
2023-01-21T20:36:21.647Z,71.50
2023-01-21T20:38:51.226Z,71.50
2023-01-21T20:41:19.524Z,71.40
2023-01-21T20:43:49.256Z,71.60
2023-01-21T20:46:20.995Z,71.50
2023-01-21T20:48:51.778Z,71.50
2023-01-21T20:51:21.062Z,71.50
2023-01-21T20:53:50.428Z,71.50
2023-01-21T20:56:21.952Z,71.40
2023-01-21T20:58:51.582Z,71.60
2023-01-21T21:01:21.787Z,71.50
2023-01-21T21:03:50.844Z,71.40
2023-01-21T21:06:20.694Z,71.50
2023-01-21T21:08:49.714Z,71.50
2023-01-21T21:11:19.617Z,71.60
2023-01-21T21:13:51.682Z,71.40
2023-01-21T21:16:23.883Z,71.60
2023-01-21T21:18:57.124Z,71.50
2023-01-21T21:21:26.201Z,71.50
2023-01-21T21:23:54.405Z,71.60
2023-01-21T21:26:24.455Z,71.60
2023-01-21T21:28:55.227Z,71.50
2023-01-21T21:31:26.102Z,71.50
2023-01-21T21:33:57.289Z,71.40
2023-01-21T21:36:25.878Z,71.50
2023-01-21T21:38:55.636Z,71.50
2023-01-21T21:41:43.968Z,71.50
2023-01-21T21:44:12.773Z,71.40
2023-01-21T21:47:00.226Z,71.40
2023-01-21T21:49:29.247Z,71.50
2023-01-21T21:51:59.749Z,71.50
2023-01-21T21:54:28.710Z,71.50
2023-01-21T21:56:57.102Z,71.50
2023-01-21T21:59:25.382Z,71.50
2023-01-21T22:01:55.232Z,71.40
2023-01-21T22:04:23.625Z,71.60
2023-01-21T22:06:51.960Z,71.40
2023-01-21T22:09:20.407Z,71.40
2023-01-21T22:11:48.822Z,71.50
2023-01-21T22:14:17.999Z,71.40
2023-01-21T22:16:46.642Z,71.50
2023-01-21T22:19:16.303Z,71.60
2023-01-21T22:21:45.638Z,71.60
2023-01-21T22:24:15.571Z,71.50
2023-01-21T22:26:44.072Z,71.40
2023-01-21T22:29:12.955Z,71.60
2023-01-21T22:31:41.397Z,71.50
2023-01-21T22:34:11.661Z,71.40
2023-01-21T22:36:42.269Z,71.40
2023-01-21T22:39:11.316Z,71.40
2023-01-21T22:41:40.542Z,71.50
2023-01-21T22:44:08.748Z,71.40
2023-01-21T22:46:37.419Z,71.40
2023-01-21T22:49:05.951Z,71.30
2023-01-21T22:51:34.284Z,71.60
2023-01-21T22:54:03.897Z,71.40
2023-01-21T22:56:50.535Z,71.50
2023-01-21T22:59:20.499Z,71.30
2023-01-21T23:01:51.010Z,71.50
2023-01-21T23:04:19.525Z,71.50
2023-01-21T23:06:48.780Z,71.50
2023-01-21T23:09:18.564Z,71.50
2023-01-21T23:11:47.364Z,71.40
2023-01-21T23:14:16.543Z,71.60
2023-01-21T23:16:45.364Z,71.60
2023-01-21T23:19:14.117Z,71.40
2023-01-21T23:21:42.638Z,71.40
2023-01-21T23:24:11.121Z,71.30
2023-01-21T23:26:40.770Z,71.50
2023-01-21T23:29:09.073Z,71.30
2023-01-21T23:31:37.524Z,71.50
2023-01-21T23:34:05.955Z,71.40
2023-01-21T23:36:34.479Z,71.40
2023-01-21T23:39:13.930Z,71.40
2023-01-21T23:41:51.000Z,71.50
2023-01-21T23:44:20.595Z,71.30
2023-01-21T23:46:49.765Z,71.50
2023-01-21T23:49:18.748Z,71.50
2023-01-21T23:51:48.052Z,71.40
2023-01-21T23:54:17.497Z,71.40
2023-01-21T23:56:46.148Z,71.20
2023-01-21T23:59:15.863Z,71.40
